createdAt,value
2023-04-08T00:01:05.214Z,24.79
2023-04-08T00:03:33.193Z,24.79
2023-04-08T00:06:02.669Z,24.77
2023-04-08T00:08:30.671Z,24.76
2023-04-08T00:10:58.346Z,24.76
2023-04-08T00:13:26.222Z,24.75
2023-04-08T00:15:53.771Z,24.72
2023-04-08T00:18:22.490Z,24.72
2023-04-08T00:20:49.994Z,24.69
2023-04-08T00:23:17.447Z,24.70
2023-04-08T00:25:45.528Z,24.68
2023-04-08T00:28:12.922Z,24.66
2023-04-08T00:30:40.756Z,24.65
2023-04-08T00:33:08.914Z,24.63
2023-04-08T00:35:36.663Z,24.61
2023-04-08T00:38:07.902Z,24.61
2023-04-08T00:40:35.705Z,24.60
2023-04-08T00:43:03.131Z,24.59
2023-04-08T00:45:30.631Z,24.58
2023-04-08T00:47:58.430Z,24.56
2023-04-08T00:50:26.329Z,24.55
2023-04-08T00:52:53.775Z,24.54
2023-04-08T00:55:21.599Z,24.53
2023-04-08T00:57:49.051Z,24.51
2023-04-08T01:00:16.700Z,24.51
2023-04-08T01:03:10.073Z,24.51
2023-04-08T01:06:05.662Z,24.49
2023-04-08T01:08:33.389Z,24.51
2023-04-08T01:11:02.068Z,24.48
2023-04-08T01:13:31.505Z,24.47
2023-04-08T01:15:59.499Z,24.46
2023-04-08T01:18:27.119Z,24.45
2023-04-08T01:20:54.567Z,24.44
2023-04-08T01:24:02.236Z,24.43
2023-04-08T01:26:29.720Z,24.45
2023-04-08T01:28:58.443Z,24.39
2023-04-08T01:31:26.249Z,24.37
2023-04-08T01:33:53.872Z,24.37
2023-04-08T01:36:22.826Z,24.36
2023-04-08T01:38:50.497Z,24.37
2023-04-08T01:41:18.547Z,24.36
2023-04-08T01:43:46.216Z,24.34
2023-04-08T01:46:13.738Z,24.34
2023-04-08T01:48:41.660Z,24.33
2023-04-08T01:51:09.364Z,24.33
2023-04-08T01:53:36.805Z,24.31
2023-04-08T01:56:11.046Z,24.31
2023-04-08T01:58:47.608Z,24.30
2023-04-08T02:01:17.481Z,24.30
2023-04-08T02:03:45.657Z,24.29
2023-04-08T02:06:14.500Z,24.28
2023-04-08T02:08:41.961Z,24.28
2023-04-08T02:11:10.330Z,24.28
2023-04-08T02:13:37.788Z,24.27
2023-04-08T02:16:38.980Z,24.25
2023-04-08T02:19:14.593Z,24.28
2023-04-08T02:21:46.907Z,24.25
2023-04-08T02:24:14.553Z,24.22
2023-04-08T02:26:42.810Z,24.21
2023-04-08T02:29:12.828Z,24.21
2023-04-08T02:31:41.502Z,24.20
2023-04-08T02:34:10.460Z,24.29
2023-04-08T02:36:39.084Z,24.21
2023-04-08T02:39:07.153Z,24.17
2023-04-08T02:41:34.967Z,24.17
2023-04-08T02:44:02.390Z,24.15
2023-04-08T02:46:30.814Z,24.14
2023-04-08T02:48:58.903Z,24.14
2023-04-08T02:51:26.506Z,24.13
2023-04-08T02:53:54.202Z,24.12
2023-04-08T02:56:21.899Z,24.10
2023-04-08T02:58:49.629Z,24.10
2023-04-08T03:01:17.685Z,24.11
2023-04-08T03:03:45.687Z,24.10
2023-04-08T03:06:13.264Z,24.09
2023-04-08T03:08:40.695Z,24.09
2023-04-08T03:11:08.481Z,24.09
2023-04-08T03:13:36.182Z,24.08
2023-04-08T03:16:03.799Z,24.08
2023-04-08T03:18:31.554Z,24.06
2023-04-08T03:20:59.010Z,24.06
2023-04-08T03:23:26.641Z,24.05
2023-04-08T03:25:54.474Z,24.05
2023-04-08T03:28:22.002Z,24.05
2023-04-08T03:30:49.644Z,24.05
2023-04-08T03:33:17.342Z,24.03
2023-04-08T03:35:44.900Z,24.02
2023-04-08T03:38:12.349Z,24.01
2023-04-08T03:40:40.093Z,24.00
2023-04-08T03:43:08.851Z,24.00
2023-04-08T03:45:36.459Z,24.00
2023-04-08T03:48:04.491Z,23.99
2023-04-08T03:50:31.986Z,23.98
2023-04-08T03:52:59.405Z,23.98
2023-04-08T03:55:27.107Z,23.98
2023-04-08T03:57:54.532Z,23.97
2023-04-08T04:00:21.984Z,23.96
2023-04-08T04:02:49.770Z,23.95
2023-04-08T04:05:17.373Z,23.96
2023-04-08T04:07:44.802Z,23.95
2023-04-08T04:10:12.719Z,23.93
2023-04-08T04:12:40.259Z,23.93
2023-04-08T04:15:08.011Z,23.93
2023-04-08T04:17:35.890Z,23.92
2023-04-08T04:20:07.036Z,23.93
2023-04-08T04:22:34.524Z,23.93
2023-04-08T04:25:02.281Z,23.91
2023-04-08T04:27:29.734Z,23.91
2023-04-08T04:29:57.173Z,23.91
2023-04-08T04:32:25.131Z,23.90
2023-04-08T04:34:52.579Z,23.90
2023-04-08T04:37:20.162Z,23.89
2023-04-08T04:39:47.899Z,23.88
2023-04-08T04:42:15.641Z,23.88
2023-04-08T04:44:43.131Z,23.88
2023-04-08T04:47:10.912Z,23.87
2023-04-08T04:49:40.213Z,23.87
2023-04-08T04:52:07.622Z,23.86
2023-04-08T04:54:35.515Z,23.86
2023-04-08T04:57:02.976Z,23.86
2023-04-08T04:59:30.723Z,23.84
2023-04-08T05:01:58.576Z,23.84
2023-04-08T05:04:26.350Z,23.83
2023-04-08T05:06:53.826Z,23.82
2023-04-08T05:09:21.595Z,23.81
2023-04-08T05:11:49.054Z,23.81
2023-04-08T05:14:16.485Z,23.80
2023-04-08T05:16:44.239Z,23.80
2023-04-08T05:19:11.673Z,23.79
2023-04-08T05:21:39.098Z,23.79
2023-04-08T05:24:06.801Z,23.77
2023-04-08T05:26:34.378Z,23.77
2023-04-08T05:29:01.788Z,23.77
2023-04-08T05:31:29.636Z,23.77
2023-04-08T05:33:57.242Z,23.77
2023-04-08T05:36:24.749Z,23.75
2023-04-08T05:38:52.789Z,23.76
2023-04-08T05:41:21.408Z,23.76
2023-04-08T05:43:48.863Z,23.76
2023-04-08T05:46:16.766Z,23.75
2023-04-08T05:48:44.211Z,23.74
2023-04-08T05:51:15.517Z,23.74
2023-04-08T05:53:43.358Z,23.74
2023-04-08T05:56:10.763Z,23.73
2023-04-08T05:58:38.229Z,23.72
2023-04-08T06:01:07.375Z,23.72
2023-04-08T06:03:35.251Z,23.73
2023-04-08T06:06:02.862Z,23.73
2023-04-08T06:08:31.824Z,23.72
2023-04-08T06:10:59.540Z,23.72
2023-04-08T06:13:27.195Z,23.72
2023-04-08T06:15:54.696Z,23.72
2023-04-08T06:18:22.458Z,23.70
2023-04-08T06:20:50.608Z,23.70
2023-04-08T06:23:18.024Z,23.70
2023-04-08T06:25:46.164Z,23.69
2023-04-08T06:28:13.582Z,23.68
2023-04-08T06:30:41.019Z,23.68
2023-04-08T06:33:08.753Z,23.68
2023-04-08T06:35:37.833Z,23.67
2023-04-08T06:38:05.442Z,23.67
2023-04-08T06:40:33.178Z,23.68
2023-04-08T06:43:00.862Z,23.66
2023-04-08T06:45:29.203Z,23.67
2023-04-08T06:47:57.049Z,23.65
2023-04-08T06:50:24.464Z,23.66
2023-04-08T06:52:51.937Z,23.66
2023-04-08T06:55:19.773Z,23.66
2023-04-08T06:57:47.192Z,23.65
2023-04-08T07:00:14.776Z,23.65
2023-04-08T07:02:42.641Z,23.65
2023-04-08T07:05:10.250Z,23.65
2023-04-08T07:07:38.135Z,23.65
2023-04-08T07:10:07.284Z,23.65
2023-04-08T07:12:36.281Z,23.64
2023-04-08T07:15:04.109Z,23.64
2023-04-08T07:17:32.482Z,23.64
2023-04-08T07:19:59.996Z,23.64
2023-04-08T07:22:27.488Z,23.63
2023-04-08T07:24:55.349Z,23.64
2023-04-08T07:27:22.769Z,23.63
2023-04-08T07:29:54.443Z,23.63
2023-04-08T07:32:22.218Z,23.61
2023-04-08T07:34:51.068Z,23.63
2023-04-08T07:37:18.557Z,23.63
2023-04-08T07:39:46.429Z,23.61
2023-04-08T07:42:13.880Z,23.60
2023-04-08T07:44:41.346Z,23.60
2023-04-08T07:47:09.432Z,23.60
2023-04-08T07:49:36.898Z,23.59
2023-04-08T07:52:06.329Z,23.60
2023-04-08T07:54:36.784Z,23.60
2023-04-08T07:57:04.362Z,23.60
2023-04-08T07:59:32.237Z,23.59
2023-04-08T08:02:00.086Z,23.58
2023-04-08T08:04:28.199Z,23.58
2023-04-08T08:06:55.988Z,23.58
2023-04-08T08:09:23.428Z,23.59
2023-04-08T08:11:51.194Z,23.58
2023-04-08T08:14:18.704Z,23.57
2023-04-08T08:16:46.169Z,23.57
2023-04-08T08:19:14.630Z,23.56
2023-04-08T08:21:42.123Z,23.56
2023-04-08T08:24:09.721Z,23.55
2023-04-08T08:26:37.490Z,23.55
2023-04-08T08:29:05.206Z,23.54
2023-04-08T08:31:32.742Z,23.53
2023-04-08T08:34:01.165Z,23.53
2023-04-08T08:36:29.112Z,23.53
2023-04-08T08:38:56.671Z,23.52
2023-04-08T08:41:24.491Z,23.52
2023-04-08T08:43:52.108Z,23.52
2023-04-08T08:46:19.917Z,23.41
2023-04-08T08:48:47.627Z,23.37
2023-04-08T08:51:15.540Z,23.39
2023-04-08T08:53:46.180Z,23.41
2023-04-08T08:56:18.412Z,23.49
2023-04-08T08:58:48.415Z,23.54
2023-04-08T09:01:35.295Z,23.60
2023-04-08T09:04:20.353Z,23.72
2023-04-08T09:07:08.807Z,23.83
2023-04-08T09:09:50.391Z,23.96
2023-04-08T09:12:18.731Z,24.06
2023-04-08T09:14:46.563Z,24.14
2023-04-08T09:17:14.149Z,24.23
2023-04-08T09:20:15.078Z,24.32
2023-04-08T09:23:01.713Z,24.47
2023-04-08T09:25:33.243Z,24.58
2023-04-08T09:28:02.138Z,24.65
2023-04-08T09:30:30.568Z,24.73
2023-04-08T09:32:58.072Z,24.82
2023-04-08T09:35:26.009Z,24.87
2023-04-08T09:37:54.034Z,24.90
2023-04-08T09:40:21.723Z,24.93
2023-04-08T09:42:54.155Z,24.98
2023-04-08T09:45:21.934Z,24.99
2023-04-08T09:48:01.574Z,25.01
2023-04-08T09:50:31.721Z,25.04
2023-04-08T09:53:16.017Z,25.12
2023-04-08T09:55:43.711Z,25.06
2023-04-08T09:58:34.490Z,25.03
2023-04-08T10:01:02.296Z,25.03
2023-04-08T10:03:33.883Z,25.01
2023-04-08T10:06:01.800Z,25.00
2023-04-08T10:08:29.415Z,24.99
2023-04-08T10:10:57.519Z,24.99
2023-04-08T10:13:25.072Z,24.99
2023-04-08T10:15:54.743Z,24.96
2023-04-08T10:18:22.364Z,24.94
2023-04-08T10:20:49.943Z,24.91
2023-04-08T10:23:18.084Z,24.90
2023-04-08T10:25:47.827Z,24.89
2023-04-08T10:28:16.316Z,24.87
2023-04-08T10:30:46.996Z,24.86
2023-04-08T10:33:18.195Z,24.83
2023-04-08T10:35:49.144Z,24.81
2023-04-08T10:38:17.070Z,24.80
2023-04-08T10:40:44.625Z,24.78
2023-04-08T10:43:12.816Z,24.76
2023-04-08T10:45:41.187Z,24.74
2023-04-08T10:48:18.816Z,24.72
2023-04-08T10:50:54.610Z,24.71
2023-04-08T10:53:31.594Z,24.69
2023-04-08T10:56:09.615Z,24.67
2023-04-08T10:58:37.073Z,24.65
2023-04-08T11:01:08.437Z,24.63
2023-04-08T11:03:37.037Z,24.61
2023-04-08T11:06:05.415Z,24.59
2023-04-08T11:08:33.377Z,24.60
2023-04-08T11:11:05.440Z,24.58
2023-04-08T11:13:33.210Z,24.57
2023-04-08T11:16:00.896Z,24.56
2023-04-08T11:18:28.706Z,24.56
2023-04-08T11:20:58.365Z,24.54
2023-04-08T11:23:27.621Z,24.53
2023-04-08T11:25:55.600Z,24.52
2023-04-08T11:28:23.301Z,24.52
2023-04-08T11:30:50.772Z,24.51
2023-04-08T11:33:18.728Z,24.51
2023-04-08T11:35:46.491Z,24.49
2023-04-08T11:38:13.965Z,24.49
2023-04-08T11:40:41.442Z,24.49
2023-04-08T11:43:13.008Z,24.47
2023-04-08T11:45:40.806Z,24.46
2023-04-08T11:48:12.624Z,24.46
2023-04-08T11:50:41.848Z,24.46
2023-04-08T11:53:23.502Z,24.45
2023-04-08T11:55:51.341Z,24.46
2023-04-08T11:58:18.773Z,24.45
2023-04-08T12:00:46.396Z,24.43
2023-04-08T12:03:14.310Z,24.43
2023-04-08T12:05:42.690Z,24.41
2023-04-08T12:08:10.242Z,24.42
2023-04-08T12:10:38.004Z,24.42
2023-04-08T12:13:05.422Z,24.40
2023-04-08T12:15:32.902Z,24.40
2023-04-08T12:18:00.673Z,24.39
2023-04-08T12:20:28.123Z,24.38
2023-04-08T12:22:55.702Z,24.38
2023-04-08T12:25:23.570Z,24.36
2023-04-08T12:27:51.020Z,24.36
2023-04-08T12:30:18.537Z,24.37
2023-04-08T12:32:47.620Z,24.36
2023-04-08T12:35:15.435Z,24.36
2023-04-08T12:37:42.892Z,24.36
2023-04-08T12:40:11.052Z,24.36
2023-04-08T12:42:38.541Z,24.32
2023-04-08T12:45:06.664Z,24.31
2023-04-08T12:47:34.435Z,24.28
2023-04-08T12:50:02.183Z,24.28
2023-04-08T12:52:29.685Z,24.26
2023-04-08T12:54:57.446Z,24.23
2023-04-08T12:57:24.846Z,24.23
2023-04-08T12:59:52.296Z,24.19
2023-04-08T13:02:20.127Z,24.17
2023-04-08T13:04:47.663Z,24.15
2023-04-08T13:07:15.427Z,24.13
2023-04-08T13:09:45.359Z,24.11
2023-04-08T13:12:13.179Z,24.11
2023-04-08T13:14:40.726Z,24.17
2023-04-08T13:17:08.475Z,24.09
2023-04-08T13:19:36.334Z,24.04
2023-04-08T13:22:03.845Z,24.02
2023-04-08T13:24:31.573Z,24.00
2023-04-08T13:26:59.253Z,24.00
2023-04-08T13:29:26.683Z,23.97
2023-04-08T13:31:54.507Z,23.95
2023-04-08T13:34:21.968Z,23.94
2023-04-08T13:36:49.438Z,23.92
2023-04-08T13:39:17.152Z,23.90
2023-04-08T13:41:44.659Z,23.90
2023-04-08T13:44:12.165Z,23.89
2023-04-08T13:46:39.899Z,23.88
2023-04-08T13:49:07.532Z,23.88
2023-04-08T13:51:35.036Z,23.86
2023-04-08T13:54:02.758Z,23.85
2023-04-08T13:56:30.840Z,23.84
2023-04-08T13:58:58.344Z,23.84
2023-04-08T14:01:26.162Z,23.83
2023-04-08T14:03:54.125Z,23.82
2023-04-08T14:06:21.627Z,23.81
2023-04-08T14:08:49.292Z,23.81
2023-04-08T14:11:17.211Z,23.79
2023-04-08T14:13:44.634Z,23.77
2023-04-08T14:16:12.317Z,23.75
2023-04-08T14:18:40.467Z,23.75
2023-04-08T14:21:08.026Z,23.75
2023-04-08T14:23:35.877Z,23.73
2023-04-08T14:26:03.649Z,23.73
2023-04-08T14:28:31.132Z,23.71
2023-04-08T14:30:58.620Z,23.72
2023-04-08T14:33:27.287Z,23.71
2023-04-08T14:35:54.812Z,23.70
2023-04-08T14:38:23.059Z,23.69
2023-04-08T14:40:50.837Z,23.67
2023-04-08T14:43:18.388Z,23.66
2023-04-08T14:45:45.835Z,23.65
2023-04-08T14:48:13.592Z,23.65
2023-04-08T14:50:41.125Z,23.65
2023-04-08T14:53:08.573Z,23.65
2023-04-08T14:55:36.269Z,23.66
2023-04-08T14:58:03.729Z,23.74
2023-04-08T15:00:31.144Z,23.84
2023-04-08T15:02:59.097Z,23.99
2023-04-08T15:05:26.669Z,24.13
2023-04-08T15:07:54.175Z,24.26
2023-04-08T15:10:21.863Z,24.39
2023-04-08T15:12:49.288Z,24.52
2023-04-08T15:15:16.810Z,24.62
2023-04-08T15:17:44.671Z,24.71
2023-04-08T15:20:13.438Z,24.78
2023-04-08T15:22:41.193Z,24.86
2023-04-08T15:25:09.450Z,24.91
2023-04-08T15:27:37.609Z,24.94
2023-04-08T15:30:08.053Z,24.98
2023-04-08T15:32:35.822Z,25.00
2023-04-08T15:35:03.400Z,25.02
2023-04-08T15:37:30.925Z,25.03
2023-04-08T15:39:58.626Z,25.04
2023-04-08T15:42:26.180Z,25.04
2023-04-08T15:44:53.568Z,25.03
2023-04-08T15:47:21.293Z,25.01
2023-04-08T15:49:52.032Z,25.01
2023-04-08T15:52:19.476Z,24.98
2023-04-08T15:54:47.309Z,24.96
2023-04-08T15:57:16.246Z,24.94
2023-04-08T15:59:43.912Z,24.91
2023-04-08T16:02:11.724Z,24.88
2023-04-08T16:04:39.796Z,24.86
2023-04-08T16:07:07.546Z,24.83
2023-04-08T16:09:35.809Z,24.82
2023-04-08T16:12:03.681Z,24.78
2023-04-08T16:14:31.139Z,24.75
2023-04-08T16:17:00.056Z,24.72
2023-04-08T16:19:28.310Z,24.70
2023-04-08T16:21:55.976Z,24.68
2023-04-08T16:24:23.428Z,24.64
2023-04-08T16:26:51.269Z,24.62
2023-04-08T16:29:18.742Z,24.59
2023-04-08T16:31:46.202Z,24.57
2023-04-08T16:34:14.010Z,24.53
2023-04-08T16:36:41.697Z,24.50
2023-04-08T16:39:09.542Z,24.48
2023-04-08T16:41:37.256Z,24.45
2023-04-08T16:44:04.975Z,24.40
2023-04-08T16:46:32.975Z,24.38
2023-04-08T16:49:01.324Z,24.36
2023-04-08T16:51:28.974Z,24.34
2023-04-08T16:53:58.771Z,24.31
2023-04-08T16:56:27.350Z,24.28
2023-04-08T16:58:55.066Z,24.27
2023-04-08T17:01:22.602Z,24.25
2023-04-08T17:03:52.303Z,24.23
2023-04-08T17:06:20.128Z,24.22
2023-04-08T17:08:47.656Z,24.24
2023-04-08T17:11:15.597Z,24.25
2023-04-08T17:13:43.985Z,24.24
2023-04-08T17:16:15.716Z,24.25
2023-04-08T17:18:43.857Z,24.24
2023-04-08T17:21:12.379Z,24.25
2023-04-08T17:23:40.141Z,24.25
2023-04-08T17:26:08.703Z,24.26
2023-04-08T17:28:36.155Z,24.27
2023-04-08T17:31:03.682Z,24.26
2023-04-08T17:33:31.555Z,24.26
2023-04-08T17:35:59.191Z,24.23
2023-04-08T17:38:26.712Z,24.23
2023-04-08T17:40:54.431Z,24.23
2023-04-08T17:43:22.128Z,24.22
2023-04-08T17:45:50.555Z,24.22
2023-04-08T17:48:18.819Z,24.22
2023-04-08T17:50:46.349Z,24.22
2023-04-08T17:53:13.808Z,24.22
2023-04-08T17:55:43.811Z,24.20
2023-04-08T17:58:11.525Z,24.21
2023-04-08T18:00:39.065Z,24.19
2023-04-08T18:03:07.004Z,24.19
2023-04-08T18:05:34.669Z,24.19
2023-04-08T18:08:02.122Z,24.18
2023-04-08T18:10:29.916Z,24.17
2023-04-08T18:13:07.903Z,24.17
2023-04-08T18:15:38.925Z,24.16
2023-04-08T18:18:06.324Z,24.15
2023-04-08T18:20:37.138Z,24.14
2023-04-08T18:23:05.032Z,24.12
2023-04-08T18:25:32.716Z,24.11
2023-04-08T18:28:00.285Z,24.09
2023-04-08T18:30:28.074Z,24.08
2023-04-08T18:32:56.148Z,24.07
2023-04-08T18:35:24.633Z,24.05
2023-04-08T18:37:52.349Z,24.03
2023-04-08T18:40:20.182Z,24.01
2023-04-08T18:42:47.608Z,24.02
2023-04-08T18:45:15.422Z,24.00
2023-04-08T18:47:43.721Z,23.99
2023-04-08T18:50:11.975Z,23.98
2023-04-08T18:52:39.746Z,24.00
2023-04-08T18:55:07.194Z,24.00
2023-04-08T18:57:34.687Z,24.00
2023-04-08T19:00:02.635Z,23.99
2023-04-08T19:02:30.880Z,23.98
2023-04-08T19:04:58.574Z,23.98
2023-04-08T19:07:27.366Z,23.98
2023-04-08T19:10:00.946Z,23.98
2023-04-08T19:12:28.645Z,23.96
2023-04-08T19:14:56.186Z,23.96
2023-04-08T19:17:23.784Z,23.95
2023-04-08T19:19:51.878Z,23.95
2023-04-08T19:22:19.334Z,23.95
2023-04-08T19:24:47.119Z,23.96
2023-04-08T19:27:14.853Z,23.94
2023-04-08T19:29:42.294Z,23.93
2023-04-08T19:32:09.859Z,23.92
2023-04-08T19:34:38.477Z,23.92
2023-04-08T19:37:06.771Z,23.92
2023-04-08T19:39:34.234Z,23.93
2023-04-08T19:42:02.064Z,23.92
2023-04-08T19:44:29.496Z,23.91
2023-04-08T19:46:57.909Z,23.91
2023-04-08T19:49:25.789Z,23.91
2023-04-08T19:51:53.298Z,23.91
2023-04-08T19:54:21.735Z,23.91
2023-04-08T19:56:49.568Z,23.91
2023-04-08T19:59:17.090Z,23.91
2023-04-08T20:01:44.657Z,23.90
2023-04-08T20:04:12.605Z,23.91
2023-04-08T20:06:40.323Z,23.90
2023-04-08T20:09:07.786Z,23.90
2023-04-08T20:11:35.664Z,23.89
2023-04-08T20:14:03.822Z,23.88
2023-04-08T20:16:31.978Z,23.87
2023-04-08T20:18:59.911Z,23.85
2023-04-08T20:21:27.866Z,23.84
2023-04-08T20:23:55.714Z,23.82
2023-04-08T20:26:23.414Z,23.80
2023-04-08T20:28:51.009Z,23.79
2023-04-08T20:31:19.317Z,23.79
2023-04-08T20:33:47.072Z,23.78
2023-04-08T20:36:14.565Z,23.76
2023-04-08T20:38:42.630Z,23.75
2023-04-08T20:41:10.616Z,23.75
2023-04-08T20:43:39.432Z,23.75
2023-04-08T20:46:07.567Z,23.74
2023-04-08T20:48:36.133Z,23.73
2023-04-08T20:51:03.578Z,23.73
2023-04-08T20:53:31.516Z,23.73
2023-04-08T20:55:59.528Z,23.73
2023-04-08T20:58:27.040Z,23.72
2023-04-08T21:00:54.510Z,23.71
2023-04-08T21:03:22.390Z,23.71
2023-04-08T21:05:50.281Z,23.70
2023-04-08T21:08:17.692Z,23.70
2023-04-08T21:10:45.511Z,23.69
2023-04-08T21:13:13.038Z,23.69
2023-04-08T21:15:40.584Z,23.68
2023-04-08T21:18:11.078Z,23.67
2023-04-08T21:20:41.726Z,23.68
2023-04-08T21:23:09.445Z,23.67
2023-04-08T21:25:36.911Z,23.68
2023-04-08T21:28:04.333Z,23.68
2023-04-08T21:30:32.066Z,23.67
2023-04-08T21:32:59.546Z,23.66
2023-04-08T21:35:27.064Z,23.65
2023-04-08T21:37:54.986Z,23.64
2023-04-08T21:40:22.417Z,23.64
2023-04-08T21:42:49.859Z,23.63
2023-04-08T21:45:17.868Z,23.62
2023-04-08T21:47:46.067Z,23.62
2023-04-08T21:50:13.554Z,23.61
2023-04-08T21:52:43.565Z,23.61
2023-04-08T21:55:11.499Z,23.59
2023-04-08T21:57:39.366Z,23.59
2023-04-08T22:00:13.167Z,23.59
2023-04-08T22:02:43.048Z,23.57
2023-04-08T22:05:11.551Z,23.57
2023-04-08T22:07:39.048Z,23.56
2023-04-08T22:10:07.423Z,23.57
2023-04-08T22:12:35.138Z,23.57
2023-04-08T22:15:03.001Z,23.55
2023-04-08T22:17:30.709Z,23.55
2023-04-08T22:19:58.446Z,23.55
2023-04-08T22:22:25.960Z,23.54
2023-04-08T22:24:53.369Z,23.54
2023-04-08T22:27:21.212Z,23.54
2023-04-08T22:29:48.686Z,23.53
2023-04-08T22:32:18.160Z,23.52
2023-04-08T22:34:45.978Z,23.53
2023-04-08T22:37:13.644Z,23.53
2023-04-08T22:39:41.301Z,23.52
2023-04-08T22:42:09.036Z,23.51
2023-04-08T22:44:36.445Z,23.50
2023-04-08T22:47:03.900Z,23.50
2023-04-08T22:49:33.781Z,23.48
2023-04-08T22:52:01.256Z,23.50
2023-04-08T22:54:28.678Z,23.49
2023-04-08T22:56:56.656Z,23.49
2023-04-08T22:59:24.120Z,23.49
2023-04-08T23:01:51.575Z,23.49
2023-04-08T23:04:19.476Z,23.48
2023-04-08T23:06:47.250Z,23.47
2023-04-08T23:09:14.760Z,23.46
2023-04-08T23:11:42.436Z,23.47
2023-04-08T23:14:11.064Z,23.45
2023-04-08T23:16:38.585Z,23.44
2023-04-08T23:19:06.297Z,23.45
2023-04-08T23:21:33.727Z,23.43
2023-04-08T23:24:01.190Z,23.45
2023-04-08T23:26:29.261Z,23.44
2023-04-08T23:28:57.322Z,23.44
2023-04-08T23:31:24.854Z,23.43
2023-04-08T23:33:52.634Z,23.44
2023-04-08T23:36:20.094Z,23.45
2023-04-08T23:38:47.511Z,23.42
2023-04-08T23:41:18.094Z,23.41
2023-04-08T23:43:46.206Z,23.41
2023-04-08T23:46:13.732Z,23.41
2023-04-08T23:48:41.628Z,23.40
2023-04-08T23:51:09.036Z,23.40
2023-04-08T23:53:36.469Z,23.39
2023-04-08T23:56:08.243Z,23.40
2023-04-08T23:58:35.893Z,23.39
